Airport View

Enter AWOS ICAO identifier for current METAR.

ex. KFNL

KBBG 300455Z AUTO 00000KT 10SM FEW018 SCT023 03/03 A3020 RMK AO2

30 Oct 2020 05:01

Frequency: 124.625

Phone: 417-334-0218

Other Area AWOS: KFWB - KHRO - KFLP - KBPK

TAF KBBG 292320Z 3000/3024 32008KT P6SM FEW050 FM300200 32005KT P6SM SKC FM301000 27003KT P6SM SKC FM301300 18004KT P6SM SKC